METAR Data
IDs: Format: Raw Decoded Include TAF

Data at: 2345 UTC 29 May 2020

KAIO 292335Z AUTO 35006KT 10SM -UP CLR 22/07 A3014 RMK AO2
KAIO 292315Z AUTO 32005KT 10SM CLR 22/06 A3014 RMK AO2
KAIO 292255Z AUTO 01008KT 10SM CLR 22/07 A3014 RMK AO2
KAIO 292235Z AUTO 01009G16KT 10SM CLR 22/07 A3014 RMK AO2
KAIO 292215Z AUTO 34011KT 10SM CLR 22/07 A3014 RMK AO2
KAIO 292155Z AUTO 02010KT 10SM CLR 22/07 A3014 RMK AO2
KAIO 292135Z AUTO 36012KT 10SM CLR 22/07 A3014 RMK AO2
KAIO 292115Z AUTO 35012G17KT 10SM CLR 22/07 A3014 RMK AO2
KAIO 292055Z AUTO 36008G16KT 10SM CLR 22/08 A3014 RMK AO2
KAIO 292035Z AUTO 34013KT 300V010 10SM CLR 22/08 A3014 RMK AO2
KAIO 292015Z AUTO 32012G25KT 10SM CLR 22/08 A3014 RMK AO2
KAIO 291955Z AUTO 34013G19KT 10SM CLR 22/08 A3015 RMK AO2
KAIO 291935Z AUTO 32016KT 10SM CLR 22/08 A3015 RMK AO2
KAIO 291915Z AUTO 35013G19KT 10SM CLR 21/08 A3015 RMK AO2
KAIO 291855Z AUTO 33016G21KT 10SM CLR 22/08 A3015 RMK AO2
KAIO 291835Z AUTO 31014G21KT 10SM CLR 21/08 A3015 RMK AO2
KAIO 291815Z AUTO 32014G23KT 10SM CLR 21/09 A3015 RMK AO2
KAIO 291755Z AUTO 32015G23KT 10SM CLR 21/09 A3015 RMK AO2
KAIO 291735Z AUTO 33015G23KT 10SM CLR 21/09 A3015 RMK AO2
KAIO 291715Z AUTO 33016KT 10SM CLR 21/09 A3016 RMK AO2
KAIO 291655Z AUTO 31013KT 10SM CLR 20/09 A3016 RMK AO2
KAIO 291635Z AUTO 34012G19KT 10SM CLR 20/09 A3016 RMK AO2
KAIO 291615Z AUTO 34014G19KT 10SM CLR 20/10 A3016 RMK AO2
KAIO 291555Z AUTO 33008G14KT 10SM CLR 20/09 A3017 RMK AO2
KAIO 291535Z AUTO 31013KT 10SM CLR 19/10 A3017 RMK AO2
KAIO 291515Z AUTO VRB05G12KT 10SM CLR 19/10 A3017 RMK AO2
KAIO 291455Z AUTO 32007KT 10SM CLR 18/10 A3017 RMK AO2
KAIO 291435Z AUTO 34005G11KT 10SM CLR 18/10 A3017 RMK AO2
KAIO 291415Z AUTO 36008KT 10SM CLR 17/10 A3017 RMK AO2
KAIO 291355Z AUTO 33007KT 10SM CLR 17/11 A3017 RMK AO2
KAIO 291335Z AUTO 34008KT 10SM CLR 16/10 A3016 RMK AO2
KAIO 291315Z AUTO 34004KT 10SM CLR 16/11 A3016 RMK AO2
KAIO 291255Z AUTO 02004KT 10SM CLR 14/10 A3015 RMK AO2
KAIO 291235Z AUTO 00000KT 10SM CLR 14/11 A3015 RMK AO2
KAIO 291215Z AUTO 32004KT 10SM CLR 12/11 A3015 RMK AO2
KAIO 291155Z AUTO 00000KT 10SM CLR 11/11 A3015 RMK AO2
KAIO 291135Z AUTO 00000KT 10SM CLR 10/10 A3014 RMK AO2
KAIO 291115Z AUTO 00000KT 10SM CLR 10/10 A3014 RMK AO2
KAIO 291055Z AUTO 00000KT 10SM CLR 10/10 A3013 RMK AO2
KAIO 291035Z AUTO 00000KT 10SM CLR 10/10 A3013 RMK AO2
KAIO 291015Z AUTO 00000KT 10SM CLR 10/09 A3012 RMK AO2
KAIO 290955Z AUTO 00000KT 10SM CLR 10/09 A3012 RMK AO2
KAIO 290935Z AUTO 00000KT 10SM CLR 10/09 A3011 RMK AO2
KAIO 290915Z AUTO 00000KT 10SM CLR 11/08 A3011 RMK AO2
KAIO 290855Z AUTO 00000KT 10SM CLR 12/08 A3010 RMK AO2
KAIO 290835Z AUTO 35003KT 10SM CLR 12/08 A3010 RMK AO2
KAIO 290815Z AUTO 36004KT 10SM CLR 13/07 A3009 RMK AO2
KAIO 290755Z AUTO 35006KT 10SM CLR 12/08 A3009 RMK AO2
KAIO 290735Z AUTO 34007KT 10SM CLR 13/07 A3009 RMK AO2
KAIO 290715Z AUTO 02005KT 10SM CLR 14/07 A3008 RMK AO2
KAIO 290655Z AUTO 02005KT 10SM CLR 14/07 A3008 RMK AO2
KAIO 290635Z AUTO 32007KT 10SM CLR 14/07 A3007 RMK AO2
KAIO 290615Z AUTO 32008KT 10SM CLR 14/06 A3007 RMK AO2
KAIO 290555Z AUTO 31008KT 10SM CLR 14/07 A3007 RMK AO2
KAIO 290535Z AUTO 31009KT 10SM CLR 15/06 A3007 RMK AO2
KAIO 290515Z AUTO 32009KT 10SM CLR 15/06 A3007 RMK AO2
KAIO 290455Z AUTO 31010KT 10SM CLR 16/06 A3007 RMK AO2
KAIO 290435Z AUTO 32011KT 10SM CLR 16/07 A3006 RMK AO2
KAIO 290415Z AUTO 31009KT 10SM CLR 16/07 A3006 RMK AO2
KAIO 290355Z AUTO 32008KT 10SM CLR 16/07 A3005 RMK AO2
KAIO 290335Z AUTO 33009KT 10SM CLR 18/06 A3005 RMK AO2
KAIO 290315Z AUTO 33010KT 10SM CLR 18/06 A3004 RMK AO2
KAIO 290255Z AUTO 33008KT 10SM CLR 18/06 A3004 RMK AO2
KAIO 290235Z AUTO 34009KT 10SM CLR 19/06 A3003 RMK AO2
KAIO 290215Z AUTO 33009KT 10SM CLR 20/06 A3002 RMK AO2
KAIO 290155Z AUTO 32007KT 10SM CLR 20/08 A3002 RMK AO2
KAIO 290135Z AUTO 33009KT 10SM CLR 21/07 A3001 RMK AO2
KAIO 290115Z AUTO 34009KT 10SM CLR 23/07 A3001 RMK AO2
KAIO 290055Z AUTO 34013KT 10SM CLR 24/07 A3000 RMK AO2
KAIO 290035Z AUTO 35012G18KT 10SM CLR 24/07 A2999 RMK AO2
KAIO 290015Z AUTO 35010G19KT 10SM FEW085 FEW120 25/07 A2998 RMK AO2
KAIO 282355Z AUTO 35012G19KT 10SM SCT085 25/09 A2998 RMK AO2
KAIO 282335Z AUTO 36013G20KT 10SM CLR 25/09 A2997 RMK AO2
KAIO 282315Z AUTO 35014KT 10SM CLR 25/09 A2997 RMK AO2
KAIO 282255Z AUTO 36011KT 10SM FEW075 25/11 A2997 RMK AO2
KAIO 282235Z AUTO 01008G14KT 330V030 10SM FEW075 25/12 A2997 RMK AO2
KAIO 282215Z AUTO 03010G17KT 10SM CLR 25/11 A2997 RMK AO2
KAIO 282155Z AUTO 01012KT 10SM CLR 25/12 A2997 RMK AO2
KAIO 282135Z AUTO 02014G19KT 10SM CLR 25/12 A2997 RMK AO2
KAIO 282115Z AUTO 02014G20KT 10SM CLR 25/12 A2997 RMK AO2
KAIO 282055Z AUTO 35014G20KT 10SM CLR 25/12 A2997 RMK AO2
KAIO 282035Z AUTO 01012KT 10SM CLR 24/12 A2997 RMK AO2
KAIO 282015Z AUTO 02013G19KT 10SM CLR 25/12 A2997 RMK AO2
KAIO 281955Z AUTO 02013G20KT 10SM CLR 25/12 A2996 RMK AO2
KAIO 281935Z AUTO 03017G25KT 10SM CLR 25/10 A2996 RMK AO2
KAIO 281915Z AUTO 02022G28KT 10SM CLR 24/12 A2996 RMK AO2
KAIO 281855Z AUTO 01014G21KT 10SM CLR 24/13 A2996 RMK AO2
KAIO 281835Z AUTO 02018KT 10SM CLR 24/13 A2996 RMK AO2
KAIO 281815Z AUTO 02016G25KT 10SM CLR 24/13 A2996 RMK AO2
KAIO 281755Z AUTO 02018G30KT 10SM CLR 24/12 A2996 RMK AO2
KAIO 281715Z AUTO 02022KT 10SM CLR 23/12 A2995 RMK AO2
KAIO 281655Z AUTO 03020KT 10SM CLR 23/12 A2994 RMK AO2
KAIO 281255Z AUTO 36011KT 10SM SCT080 18/18 A2992 RMK AO2
KAIO 281235Z AUTO 35009KT 10SM SCT065 SCT075 18/18 A2992 RMK AO2
KAIO 281215Z AUTO 01006KT 10SM SCT065 18/18 A2992 RMK AO2
KAIO 281155Z AUTO 35006KT 10SM CLR 18/18 A2991 RMK AO2